Time;durP1;ratioP1;P1;durP2;ratioP2;P2;SDS_P1;SDS_P2;PMS_P1;PMS_P2;Temp;Humidity;BMP_temperature;BMP_pressure;BME280_temperature;BME280_humidity;BME280_pressure;Samples;Min_cycle;Max_cycle;Signal;HPM_P1;HPM_P2
2021/05/21 00:01:40;;;;;;;5.63;1.13;;;;;;;19.22;60.46;100704.84;4917064;29;20072;-70
2021/05/21 00:04:07;;;;;;;3.30;1.13;;;;;;;19.01;60.50;100671.56;4917356;29;20059;-60
2021/05/21 00:06:34;;;;;;;3.10;1.27;;;;;;;19.05;60.35;100689.53;4917401;29;20468;-60
2021/05/21 00:09:02;;;;;;;1.65;1.13;;;;;;;19.15;60.37;100699.69;4916889;29;20056;-72
2021/05/21 00:11:29;;;;;;;1.42;1.08;;;;;;;19.12;60.65;100712.50;4917309;29;20075;-66
2021/05/21 00:13:56;;;;;;;3.53;1.05;;;;;;;19.11;60.31;100708.03;4916954;29;20091;-65
2021/05/21 00:16:23;;;;;;;4.78;1.50;;;;;;;19.04;60.35;100702.03;4916783;29;20056;-71
2021/05/21 00:18:53;;;;;;;10.25;2.10;;;;;;;19.15;60.25;100717.50;4916790;29;20104;-66
2021/05/21 00:21:19;;;;;;;4.03;1.30;;;;;;;19.16;60.24;100716.31;4916773;29;20597;-67
2021/05/21 00:23:46;;;;;;;4.22;1.45;;;;;;;19.16;60.42;100716.31;4916918;29;20493;-74
2021/05/21 00:26:13;;;;;;;3.65;1.30;;;;;;;19.13;60.00;100711.34;4916813;29;20048;-66
2021/05/21 00:28:40;;;;;;;3.92;1.45;;;;;;;19.11;60.29;100719.34;4916887;29;20056;-66
2021/05/21 00:31:07;;;;;;;4.07;1.30;;;;;;;19.09;59.98;100723.66;4917001;29;20048;-65
2021/05/21 00:33:34;;;;;;;4.47;1.17;;;;;;;19.08;59.96;100717.19;4916592;29;20488;-62
2021/05/21 00:36:01;;;;;;;4.30;1.95;;;;;;;19.04;60.44;100707.69;4917024;29;20481;-69
2021/05/21 00:38:28;;;;;;;1.83;0.90;;;;;;;18.99;60.10;100702.19;4916666;29;20051;-67
2021/05/21 00:40:55;;;;;;;5.35;1.23;;;;;;;18.80;60.37;100679.88;4916636;29;20099;-69
2021/05/21 00:43:21;;;;;;;3.53;1.60;;;;;;;19.09;60.59;100730.16;4916827;29;20059;-62
2021/05/21 00:45:48;;;;;;;5.00;1.20;;;;;;;19.07;60.57;100726.00;4899783;29;20520;-65
2021/05/21 00:48:15;;;;;;;2.78;1.23;;;;;;;18.91;60.30;100711.53;4916521;29;20048;-67
2021/05/21 00:50:42;;;;;;;1.60;0.93;;;;;;;19.03;60.58;100728.66;4916715;29;20071;-66
2021/05/21 00:53:11;;;;;;;3.95;1.25;;;;;;;18.76;60.29;100678.06;4916444;29;20048;-64
2021/05/21 00:55:38;;;;;;;4.47;1.00;;;;;;;19.05;60.45;100719.84;4915768;29;20051;-74
2021/05/21 00:58:06;;;;;;;3.85;0.82;;;;;;;19.03;60.21;100722.16;4916434;29;20044;-69
2021/05/21 01:00:33;;;;;;;2.15;1.00;;;;;;;18.95;60.32;100723.84;4916963;29;20111;-69
2021/05/21 01:03:00;;;;;;;2.05;1.33;;;;;;;18.99;60.21;100730.50;4916315;29;20080;-70
2021/05/21 01:05:27;;;;;;;1.98;1.23;;;;;;;18.92;60.04;100735.81;4916753;29;20111;-70
2021/05/21 01:07:54;;;;;;;4.25;1.23;;;;;;;18.94;60.27;100750.47;4916200;29;20182;-65
2021/05/21 01:10:21;;;;;;;2.13;1.13;;;;;;;18.96;60.43;100752.97;4916243;29;20545;-63
2021/05/21 01:12:48;;;;;;;3.80;1.85;;;;;;;19.01;60.27;100749.94;4916477;29;20052;-70
2021/05/21 01:15:16;;;;;;;2.17;0.75;;;;;;;19.08;60.57;100765.28;4916089;29;20516;-69
2021/05/21 01:17:43;;;;;;;2.67;1.00;;;;;;;18.98;60.48;100759.97;4899634;29;20056;-62
2021/05/21 01:20:12;;;;;;;2.25;1.20;;;;;;;19.08;60.40;100772.97;4916385;29;20136;-67
2021/05/21 01:22:39;;;;;;;4.22;1.50;;;;;;;18.98;60.59;100740.16;4916199;29;20135;-60
2021/05/21 01:25:08;;;;;;;7.60;2.05;;;;;;;19.13;60.38;100753.78;4916203;29;20052;-61
2021/05/21 01:27:35;;;;;;;8.65;1.75;;;;;;;19.08;60.44;100755.97;4916025;29;20079;-61
2021/05/21 01:30:05;;;;;;;2.67;1.30;;;;;;;19.02;60.44;100746.81;4916199;29;20048;-67
2021/05/21 01:32:32;;;;;;;4.38;1.45;;;;;;;18.96;60.58;100750.13;4916087;29;20086;-64
2021/05/21 01:34:59;;;;;;;9.05;2.53;;;;;;;19.00;60.65;100754.78;4916261;29;20072;-63
2021/05/21 01:37:26;;;;;;;6.80;2.55;;;;;;;18.95;60.82;100746.47;4916170;29;20044;-66
2021/05/21 01:39:54;;;;;;;4.65;1.67;;;;;;;18.97;60.70;100738.47;4916077;29;20051;-64
2021/05/21 01:42:21;;;;;;;3.15;1.50;;;;;;;19.08;60.55;100753.97;4916333;29;20437;-62
2021/05/21 01:44:52;;;;;;;3.28;1.40;;;;;;;19.16;60.59;100755.97;4916218;29;20052;-62
2021/05/21 01:47:20;;;;;;;4.60;2.20;;;;;;;19.01;60.59;100733.84;4915834;29;20084;-61
2021/05/21 01:49:47;;;;;;;1.13;0.85;;;;;;;19.00;61.03;100742.63;4916251;29;20083;-61
2021/05/21 01:52:13;;;;;;;2.47;0.90;;;;;;;19.04;60.60;100750.16;4915730;29;20083;-61
2021/05/21 01:54:40;;;;;;;2.40;1.50;;;;;;;18.88;61.14;100724.34;4916628;29;20511;-61
2021/05/21 01:57:07;;;;;;;6.32;1.20;;;;;;;19.07;60.78;100746.63;4915756;29;20094;-62
2021/05/21 01:59:36;;;;;;;4.25;1.20;;;;;;;18.91;61.12;100725.69;4899379;29;20048;-63
2021/05/21 02:02:04;;;;;;;2.85;1.05;;;;;;;19.00;60.94;100732.16;4915771;29;20457;-64
2021/05/21 02:04:38;;;;;;;2.47;1.38;;;;;;;18.99;61.00;100719.16;4915827;29;20052;-61
2021/05/21 02:07:07;;;;;;;6.38;2.08;;;;;;;18.93;60.69;100720.50;4917961;29;20099;-62
2021/05/21 02:09:45;;;;;;;2.40;1.15;;;;;;;18.83;60.95;100721.66;4919163;29;20052;-62
2021/05/21 02:12:12;;;;;;;5.10;1.42;;;;;;;18.87;61.33;100728.34;4919049;29;20052;-62
2021/05/21 02:14:39;;;;;;;4.22;1.10;;;;;;;18.81;61.47;100734.50;4919428;29;20416;-64
2021/05/21 02:17:06;;;;;;;2.65;1.20;;;;;;;18.81;60.96;100726.00;4919014;29;20091;-62
2021/05/21 02:19:33;;;;;;;3.55;1.20;;;;;;;18.55;61.30;100681.50;4918959;29;20083;-63
2021/05/21 02:22:00;;;;;;;6.32;1.30;;;;;;;18.81;61.61;100711.84;4919269;29;20048;-62
2021/05/21 02:24:27;;;;;;;2.83;1.30;;;;;;;18.84;61.56;100705.53;4919285;29;20139;-63
2021/05/21 02:26:54;;;;;;;5.82;1.40;;;;;;;18.85;61.45;100705.19;4919110;29;20083;-64
2021/05/21 02:29:21;;;;;;;4.72;1.15;;;;;;;18.78;61.61;100690.72;4918814;29;20052;-66
2021/05/21 02:31:48;;;;;;;6.57;1.40;;;;;;;18.88;61.76;100700.88;4919029;29;20107;-66
2021/05/21 02:34:14;;;;;;;3.08;1.13;;;;;;;18.71;61.46;100679.03;4917815;29;20438;-63
2021/05/21 02:36:41;;;;;;;2.92;1.85;;;;;;;18.85;61.57;100707.19;4918642;29;20478;-63
2021/05/21 02:39:08;;;;;;;3.13;1.60;;;;;;;18.85;61.97;100710.03;4918557;29;20083;-63
2021/05/21 02:41:35;;;;;;;5.55;1.48;;;;;;;18.85;61.97;100718.50;4918535;29;20099;-63
2021/05/21 02:44:02;;;;;;;3.40;1.50;;;;;;;18.86;62.01;100711.69;4918544;29;20143;-63
2021/05/21 02:46:30;;;;;;;1.63;1.30;;;;;;;18.72;61.59;100692.03;4918672;29;20397;-63
2021/05/21 02:48:57;;;;;;;4.30;1.42;;;;;;;18.62;61.92;100667.69;4918501;29;20044;-63
2021/05/21 02:51:24;;;;;;;3.55;1.55;;;;;;;18.79;61.92;100683.88;4918611;29;20087;-62
2021/05/21 02:53:50;;;;;;;2.92;1.30;;;;;;;18.88;61.98;100695.22;4918416;29;20108;-62
2021/05/21 02:56:18;;;;;;;5.35;1.65;;;;;;;18.83;61.56;100678.38;4918198;29;20084;-64
2021/05/21 02:58:45;;;;;;;4.00;1.63;;;;;;;18.67;61.86;100644.94;4918619;29;20082;-64
2021/05/21 03:01:11;;;;;;;3.28;1.23;;;;;;;18.78;61.99;100665.25;4918680;29;20134;-65
2021/05/21 03:03:38;;;;;;;1.40;1.08;;;;;;;18.74;61.90;100663.44;4918746;29;20090;-64
2021/05/21 03:06:05;;;;;;;5.93;1.00;;;;;;;18.69;61.94;100659.53;4919121;29;20075;-62
2021/05/21 03:08:32;;;;;;;7.75;1.23;;;;;;;18.71;62.19;100662.06;4918023;29;20095;-61
2021/05/21 03:10:59;;;;;;;1.42;0.80;;;;;;;18.70;61.87;100660.41;4918203;29;20100;-63
2021/05/21 03:13:26;;;;;;;1.50;1.08;;;;;;;18.74;61.98;100677.56;4918193;29;20462;-62
2021/05/21 03:15:53;;;;;;;5.18;1.50;;;;;;;18.70;62.13;100669.72;4918994;29;20044;-62
2021/05/21 03:18:23;;;;;;;2.60;1.10;;;;;;;18.75;62.02;100663.09;4917470;29;20104;-63
2021/05/21 03:20:51;;;;;;;2.08;1.23;;;;;;;18.67;62.31;100647.75;4918336;29;20493;-62
2021/05/21 03:23:20;;;;;;;2.33;1.00;;;;;;;18.55;62.41;100607.16;4918116;29;20134;-72
2021/05/21 03:25:47;;;;;;;2.65;1.15;;;;;;;18.90;62.46;100653.25;4917983;29;20048;-74
2021/05/21 03:28:17;;;;;;;2.78;1.05;;;;;;;18.90;62.23;100650.41;4918012;29;20048;-83
2021/05/21 03:30:44;;;;;;;1.95;0.95;;;;;;;18.91;62.16;100652.94;4918324;29;20377;-80
2021/05/21 03:33:11;;;;;;;2.38;1.00;;;;;;;18.87;62.67;100636.94;4917723;29;20496;-77
2021/05/21 03:35:39;;;;;;;1.45;0.88;;;;;;;18.93;62.35;100635.59;4917899;29;20083;-77
2021/05/21 03:38:07;;;;;;;3.55;1.30;;;;;;;18.96;62.38;100634.09;4917693;29;20127;-74
2021/05/21 03:40:36;;;;;;;1.48;1.17;;;;;;;18.87;62.18;100636.94;4917904;29;20405;-75
2021/05/21 03:43:04;;;;;;;2.42;0.85;;;;;;;18.79;62.06;100627.28;4917521;29;20151;-69
2021/05/21 03:45:33;;;;;;;3.55;1.23;;;;;;;18.85;62.37;100628.78;4900772;29;20048;-67
2021/05/21 03:48:00;;;;;;;2.28;1.48;;;;;;;18.93;62.23;100647.75;4917267;29;20457;-64
2021/05/21 03:50:27;;;;;;;3.08;1.40;;;;;;;18.87;61.92;100648.25;4917255;29;20048;-65
2021/05/21 03:52:54;;;;;;;4.95;1.60;;;;;;;18.57;62.14;100611.31;4917317;29;20500;-63
2021/05/21 03:55:21;;;;;;;3.35;1.40;;;;;;;18.74;61.86;100644.47;4917675;29;20378;-68
2021/05/21 03:57:48;;;;;;;1.92;1.30;;;;;;;18.78;62.13;100656.75;4917448;29;20108;-67
2021/05/21 04:00:19;;;;;;;3.38;1.52;;;;;;;18.84;61.93;100657.44;4917318;29;20052;-68
2021/05/21 04:02:49;;;;;;;5.55;1.30;;;;;;;18.80;62.36;100653.59;4917284;29;20056;-67
2021/05/21 04:05:17;;;;;;;4.78;1.17;;;;;;;18.73;62.75;100650.44;4917136;29;20072;-64
2021/05/21 04:07:46;;;;;;;4.05;1.67;;;;;;;18.70;62.71;100654.75;4917139;29;20052;-65
2021/05/21 04:10:13;;;;;;;3.42;1.25;;;;;;;18.51;63.18;100638.09;4916794;29;20092;-65
2021/05/21 04:12:41;;;;;;;1.70;0.90;;;;;;;18.47;64.03;100645.59;4916957;29;20050;-65
2021/05/21 04:15:09;;;;;;;3.20;1.13;;;;;;;18.40;64.17;100642.41;4916838;29;20095;-69
2021/05/21 04:17:36;;;;;;;4.38;1.30;;;;;;;18.21;64.41;100615.28;4916879;29;20132;-67
2021/05/21 04:20:04;;;;;;;5.05;1.17;;;;;;;18.35;64.56;100634.91;4916810;29;20044;-67
2021/05/21 04:22:31;;;;;;;1.83;1.10;;;;;;;18.38;64.44;100644.72;4900092;29;20131;-68
2021/05/21 04:24:58;;;;;;;2.22;1.42;;;;;;;18.39;64.56;100647.25;4916721;29;20048;-69
2021/05/21 04:27:25;;;;;;;3.60;1.73;;;;;;;18.17;64.50;100593.66;4916512;29;20076;-68
2021/05/21 04:29:52;;;;;;;6.13;1.58;;;;;;;18.43;64.30;100644.59;4915942;29;20582;-73
2021/05/21 04:32:19;;;;;;;4.65;1.60;;;;;;;18.41;64.53;100630.75;4916567;29;20536;-71
2021/05/21 04:34:45;;;;;;;5.22;1.52;;;;;;;18.34;64.47;100636.09;4917326;29;20446;-71
2021/05/21 04:37:13;;;;;;;2.08;1.17;;;;;;;18.09;64.89;100608.63;4916355;29;20140;-70
2021/05/21 04:39:39;;;;;;;3.28;2.13;;;;;;;18.19;65.22;100626.09;4917487;29;20048;-71
2021/05/21 04:42:07;;;;;;;5.28;1.58;;;;;;;18.15;65.10;100627.94;4915673;29;20096;-72
2021/05/21 04:44:34;;;;;;;3.90;1.67;;;;;;;17.99;65.59;100623.91;4915280;29;20131;-71
2021/05/21 04:47:01;;;;;;;4.40;2.22;;;;;;;17.95;65.65;100612.41;4916404;29;20055;-72
2021/05/21 04:49:35;;;;;;;2.80;1.55;;;;;;;17.90;65.36;100614.56;4916594;29;20621;-73
2021/05/21 04:52:07;;;;;;;6.25;2.20;;;;;;;17.86;65.59;100613.56;4916847;29;20075;-73
2021/05/21 04:54:36;;;;;;;3.40;1.67;;;;;;;17.75;66.12;100616.66;4916801;29;20080;-74
2021/05/21 04:57:05;;;;;;;5.10;1.80;;;;;;;17.63;66.49;100619.25;4916487;29;20048;-66
2021/05/21 04:59:32;;;;;;;4.93;2.63;;;;;;;17.69;66.41;100634.06;4916307;29;20102;-63
2021/05/21 05:01:59;;;;;;;4.50;2.15;;;;;;;17.70;66.01;100619.59;4916349;29;20560;-61
2021/05/21 05:04:26;;;;;;;5.68;2.10;;;;;;;17.94;65.96;100653.13;4916233;29;20099;-69
2021/05/21 05:06:53;;;;;;;5.15;2.20;;;;;;;17.99;66.31;100644.50;4916200;29;20484;-64
2021/05/21 05:09:20;;;;;;;5.75;2.20;;;;;;;18.06;66.47;100641.19;4916185;29;20106;-62
2021/05/21 05:11:47;;;;;;;4.65;3.00;;;;;;;18.15;66.38;100655.34;4916169;29;20481;-71
2021/05/21 05:14:14;;;;;;;4.60;2.53;;;;;;;18.25;66.01;100663.50;4916067;29;20392;-69
2021/05/21 05:16:41;;;;;;;5.38;2.50;;;;;;;18.15;66.10;100639.22;4916327;29;20464;-73
2021/05/21 05:19:08;;;;;;;6.32;2.38;;;;;;;18.29;66.14;100650.41;4916401;29;20382;-70
2021/05/21 05:21:40;;;;;;;5.65;2.40;;;;;;;18.22;65.72;100650.03;4916422;29;20445;-70
2021/05/21 05:24:14;;;;;;;3.85;2.55;;;;;;;18.10;65.74;100644.19;4916162;29;20508;-69
2021/05/21 05:26:42;;;;;;;2.97;1.60;;;;;;;18.04;65.81;100649.16;4916426;29;20084;-72
2021/05/21 05:29:09;;;;;;;3.28;2.53;;;;;;;18.05;65.81;100645.19;4916410;29;20051;-60
2021/05/21 05:31:40;;;;;;;9.07;2.55;;;;;;;17.95;66.02;100642.66;4916021;29;20540;-61
2021/05/21 05:34:07;;;;;;;2.92;1.90;;;;;;;17.82;65.95;100641.63;4917087;29;20048;-62
2021/05/21 05:36:34;;;;;;;8.27;2.40;;;;;;;17.84;66.63;100655.41;4916204;29;20100;-61
2021/05/21 05:39:01;;;;;;;3.10;1.67;;;;;;;17.84;66.30;100649.75;4916362;29;20080;-62
2021/05/21 05:41:28;;;;;;;8.05;2.17;;;;;;;17.74;66.68;100645.19;4917434;29;20075;-62
2021/05/21 05:43:55;;;;;;;7.80;2.45;;;;;;;17.75;66.80;100650.53;4920273;29;20056;-62
2021/05/21 05:46:22;;;;;;;8.50;2.78;;;;;;;17.69;67.10;100654.66;4919838;29;20088;-63
2021/05/21 05:48:50;;;;;;;6.60;2.65;;;;;;;17.73;67.13;100649.19;4919353;29;20094;-62
2021/05/21 05:51:17;;;;;;;8.25;3.00;;;;;;;17.75;66.69;100650.53;4919573;29;20107;-67
2021/05/21 05:53:45;;;;;;;5.00;2.58;;;;;;;17.80;67.25;100660.06;4919313;29;20481;-67
2021/05/21 05:56:12;;;;;;;4.80;2.97;;;;;;;17.61;66.94;100627.25;4919220;29;20492;-61
2021/05/21 05:58:40;;;;;;;9.25;3.28;;;;;;;17.83;67.29;100659.41;4919446;29;20056;-65
2021/05/21 06:01:07;;;;;;;5.15;2.53;;;;;;;17.82;67.32;100660.56;4918032;29;20056;-57
2021/05/21 06:03:34;;;;;;;7.10;3.05;;;;;;;17.85;67.21;100668.41;4919581;29;20044;-66
2021/05/21 06:06:02;;;;;;;5.10;2.75;;;;;;;17.71;66.81;100641.06;4919625;29;20115;-61
2021/05/21 06:08:48;;;;;;;7.65;2.88;;;;;;;17.73;66.90;100650.03;4918945;29;20059;-58
2021/05/21 06:11:15;;;;;;;7.47;3.55;;;;;;;17.64;66.89;100635.06;4919090;29;20104;-58
2021/05/21 06:13:42;;;;;;;8.63;3.40;;;;;;;17.99;67.24;100686.06;4919630;29;20139;-59
2021/05/21 06:16:09;;;;;;;7.35;3.42;;;;;;;18.04;67.38;100677.41;4919146;29;20407;-58
2021/05/21 06:18:39;;;;;;;14.02;3.90;;;;;;;18.00;67.17;100676.41;4918558;29;20048;-60
2021/05/21 06:21:06;;;;;;;7.97;3.58;;;;;;;17.81;68.06;100661.72;4918643;29;20055;-59
2021/05/21 06:23:33;;;;;;;10.25;4.00;;;;;;;17.79;68.61;100675.34;4918709;29;20139;-59
2021/05/21 06:26:12;;;;;;;8.73;3.40;;;;;;;17.77;68.86;100668.00;4918623;29;20079;-59
2021/05/21 06:28:41;;;;;;;8.23;3.28;;;;;;;17.74;68.44;100668.66;4918820;29;20079;-59
2021/05/21 06:31:09;;;;;;;6.63;3.55;;;;;;;17.72;68.77;100658.84;4918660;29;20051;-59
2021/05/21 06:33:36;;;;;;;6.03;2.92;;;;;;;17.47;69.04;100640.59;4918526;29;20047;-59
2021/05/21 06:36:03;;;;;;;5.43;2.40;;;;;;;17.48;69.02;100673.34;4918463;29;20079;-59
2021/05/21 06:38:31;;;;;;;4.18;1.55;;;;;;;17.25;68.96;100658.44;4918518;29;20457;-60
2021/05/21 06:40:58;;;;;;;5.68;1.27;;;;;;;17.26;69.30;100674.19;4918253;29;20048;-58
2021/05/21 06:43:27;;;;;;;2.63;1.33;;;;;;;17.01;69.04;100641.84;4918622;29;20469;-58
2021/05/21 06:45:55;;;;;;;4.45;1.55;;;;;;;17.13;69.16;100649.72;4918183;29;20086;-59
2021/05/21 06:48:26;;;;;;;4.20;1.60;;;;;;;17.02;69.24;100640.69;4918140;29;20535;-59
2021/05/21 06:50:53;;;;;;;4.07;2.08;;;;;;;17.14;69.18;100652.22;4918210;29;20063;-59
2021/05/21 06:53:22;;;;;;;9.07;3.00;;;;;;;17.17;69.36;100667.69;4917145;29;20068;-58
2021/05/21 06:55:50;;;;;;;8.50;2.75;;;;;;;17.17;69.66;100671.34;4918137;29;20056;-59
2021/05/21 06:58:19;;;;;;;5.40;2.05;;;;;;;17.14;69.27;100676.78;4918693;29;20102;-59
2021/05/21 07:00:47;;;;;;;7.82;1.90;;;;;;;17.09;69.41;100669.28;4918204;29;20060;-60
2021/05/21 07:03:15;;;;;;;6.80;2.38;;;;;;;17.05;69.73;100668.25;4917777;29;20135;-58
2021/05/21 07:05:46;;;;;;;4.45;1.58;;;;;;;16.90;69.47;100660.19;4918214;29;20056;-58
2021/05/21 07:08:15;;;;;;;7.32;2.03;;;;;;;17.08;69.75;100680.91;4917990;29;20392;-58
2021/05/21 07:10:42;;;;;;;6.47;2.03;;;;;;;17.08;69.94;100690.19;4918103;29;20056;-59
2021/05/21 07:13:11;;;;;;;8.32;1.90;;;;;;;17.08;69.56;100690.19;4918322;29;20417;-61
2021/05/21 07:15:38;;;;;;;8.70;2.20;;;;;;;17.07;69.81;100694.19;4918150;29;20048;-57
2021/05/21 07:18:06;;;;;;;9.48;2.22;;;;;;;16.91;69.62;100667.50;4917624;29;20138;-59
2021/05/21 07:20:34;;;;;;;10.37;2.23;;;;;;;17.00;69.55;100685.34;4917800;29;20052;-59
2021/05/21 07:23:01;;;;;;;7.07;1.70;;;;;;;16.92;69.51;100675.66;4918773;29;20054;-59
2021/05/21 07:25:29;;;;;;;9.30;2.53;;;;;;;16.94;69.22;100673.34;4917793;29;20052;-59
2021/05/21 07:27:56;;;;;;;8.55;2.40;;;;;;;16.90;69.48;100682.75;4918325;29;20159;-59
2021/05/21 07:30:23;;;;;;;7.15;1.67;;;;;;;16.80;69.52;100678.19;4917732;29;20048;-59
2021/05/21 07:32:50;;;;;;;5.20;1.17;;;;;;;16.78;69.59;100686.97;4917841;29;20468;-59
2021/05/21 07:35:17;;;;;;;6.72;1.42;;;;;;;16.84;69.54;100678.41;4900990;29;20048;-58
2021/05/21 07:37:45;;;;;;;4.53;1.40;;;;;;;16.87;69.59;100680.59;4917355;29;20526;-59
2021/05/21 07:40:13;;;;;;;5.25;1.38;;;;;;;16.79;69.79;100665.25;4917951;29;20083;-58
2021/05/21 07:42:40;;;;;;;4.77;1.73;;;;;;;16.98;70.22;100685.63;4917799;29;20075;-58
2021/05/21 07:45:08;;;;;;;3.88;1.73;;;;;;;17.03;70.45;100690.34;4917349;29;20047;-61
2021/05/21 07:47:35;;;;;;;5.40;2.13;;;;;;;17.10;70.11;100696.34;4917498;29;20048;-59
2021/05/21 07:50:05;;;;;;;10.93;2.92;;;;;;;17.14;70.02;100691.72;4917714;29;20441;-58
2021/05/21 07:52:32;;;;;;;4.28;2.35;;;;;;;17.29;69.70;100702.63;4917712;29;20468;-59
2021/05/21 07:55:03;;;;;;;6.30;1.95;;;;;;;17.27;69.13;100673.91;4917502;29;20052;-58
2021/05/21 07:57:30;;;;;;;5.80;1.85;;;;;;;17.55;68.28;100701.94;4917203;29;20544;-59
2021/05/21 07:59:57;;;;;;;9.27;1.67;;;;;;;17.60;67.70;100690.50;4917112;29;20108;-58
2021/05/21 08:02:24;;;;;;;6.38;1.45;;;;;;;17.71;67.67;100705.19;4916885;29;20048;-58
2021/05/21 08:04:51;;;;;;;8.52;1.30;;;;;;;17.69;67.23;100693.38;4917006;29;20052;-58
2021/05/21 08:07:18;;;;;;;7.80;1.52;;;;;;;17.84;66.57;100706.25;4916072;29;20056;-58
2021/05/21 08:09:49;;;;;;;6.20;2.53;;;;;;;17.93;66.55;100715.63;4916994;29;20115;-59
2021/05/21 08:12:16;;;;;;;7.57;1.80;;;;;;;17.84;66.06;100680.84;4916919;29;20044;-59
2021/05/21 08:14:44;;;;;;;9.80;2.42;;;;;;;18.08;66.15;100709.50;4916833;29;20047;-59
2021/05/21 08:17:12;;;;;;;4.30;1.75;;;;;;;18.19;65.85;100719.38;4916803;29;20059;-60
2021/05/21 08:19:43;;;;;;;7.05;1.33;;;;;;;18.34;65.28;100722.91;4917444;29;20481;-59
2021/05/21 08:22:10;;;;;;;4.43;1.40;;;;;;;18.43;65.25;100698.31;4916641;29;20067;-60
2021/05/21 08:24:37;;;;;;;8.35;1.52;;;;;;;18.89;64.64;100731.66;4916497;29;20084;-59
2021/05/21 08:27:04;;;;;;;5.93;1.40;;;;;;;19.15;64.22;100731.66;4916390;29;20116;-59
2021/05/21 08:29:33;;;;;;;12.70;1.75;;;;;;;19.36;63.39;100728.13;4916988;29;20048;-59
2021/05/21 08:32:02;;;;;;;11.75;2.13;;;;;;;19.42;63.01;100713.47;4917096;29;20071;-59
2021/05/21 08:34:29;;;;;;;6.70;1.90;;;;;;;19.45;62.50;100720.44;4916328;29;20054;-58
2021/05/21 08:36:56;;;;;;;8.50;1.88;;;;;;;19.65;62.52;100736.75;4916476;29;20048;-59
2021/05/21 08:39:23;;;;;;;14.13;2.38;;;;;;;19.81;62.27;100739.88;4899767;29;20556;-58
2021/05/21 08:41:54;;;;;;;8.73;2.08;;;;;;;19.85;61.93;100725.84;4916756;29;20090;-59
2021/05/21 08:44:21;;;;;;;14.60;3.20;;;;;;;20.14;61.28;100730.75;4917083;29;20107;-59
2021/05/21 08:46:48;;;;;;;11.70;2.53;;;;;;;20.09;61.35;100728.91;4916392;29;20556;-59
2021/05/21 08:49:16;;;;;;;12.20;2.42;;;;;;;20.39;60.71;100745.13;4916942;29;20052;-59
2021/05/21 08:51:44;;;;;;;9.77;2.42;;;;;;;20.46;60.34;100740.56;4916887;29;20127;-59
2021/05/21 08:54:29;;;;;;;9.90;2.33;;;;;;;20.46;59.96;100737.75;4917148;29;20044;-60
2021/05/21 08:56:56;;;;;;;8.02;2.10;;;;;;;20.80;59.34;100745.22;4916440;29;20491;-60
2021/05/21 08:59:23;;;;;;;17.38;2.72;;;;;;;21.17;58.63;100747.44;4900246;29;20559;-58
2021/05/21 09:01:55;;;;;;;12.52;2.25;;;;;;;21.16;57.72;100742.91;4916564;29;20400;-58
2021/05/21 09:04:23;;;;;;;12.50;2.38;;;;;;;20.98;57.59;100740.22;4916395;29;20051;-60
2021/05/21 09:06:50;;;;;;;6.43;1.90;;;;;;;20.79;57.02;100720.84;4916261;29;20055;-58
2021/05/21 09:09:18;;;;;;;13.00;2.30;;;;;;;20.88;57.02;100720.78;4916323;29;20084;-59
2021/05/21 09:11:46;;;;;;;12.85;2.20;;;;;;;21.01;56.39;100741.56;4916170;29;20135;-59
2021/05/21 09:14:15;;;;;;;13.85;2.05;;;;;;;21.04;55.94;100724.66;4916193;29;20111;-60
2021/05/21 09:16:44;;;;;;;12.13;2.43;;;;;;;21.14;56.02;100712.03;4918273;29;20056;-59
2021/05/21 09:19:13;;;;;;;8.15;1.98;;;;;;;21.37;55.63;100694.63;4920028;29;20047;-61
2021/05/21 09:21:47;;;;;;;;;;;;;;;21.34;56.55;100709.53;4920615;29;20044;-59
2021/05/21 09:24:15;;;;;;;9.20;2.28;;;;;;;21.40;55.45;100720.34;4919947;29;20013;-60
2021/05/21 09:26:46;;;;;;;6.82;2.03;;;;;;;21.38;55.05;100711.34;4920316;29;20401;-60
2021/05/21 09:29:16;;;;;;;7.97;2.00;;;;;;;21.60;54.47;100704.41;4919777;29;20048;-59
2021/05/21 09:31:48;;;;;;;10.52;2.20;;;;;;;21.95;54.22;100699.16;4920043;29;20052;-59
2021/05/21 09:34:35;;;;;;;9.85;2.10;;;;;;;22.23;53.53;100681.41;4919985;29;20098;-59
2021/05/21 09:37:02;;;;;;;8.85;2.20;;;;;;;22.75;51.89;100713.94;4919884;29;20060;-59
2021/05/21 09:40:05;;;;;;;6.82;1.65;;;;;;;23.00;51.62;100717.56;4919707;29;20055;-59
2021/05/21 09:42:47;;;;;;;4.85;1.80;;;;;;;22.97;51.55;100729.69;4919987;29;20497;-58
2021/05/21 09:45:22;;;;;;;5.40;1.77;;;;;;;22.85;51.02;100710.59;4920395;29;20111;-59
2021/05/21 09:48:00;;;;;;;6.07;2.00;;;;;;;22.71;51.01;100730.91;4919728;29;20059;-58
2021/05/21 09:50:32;;;;;;;5.25;2.22;;;;;;;22.78;50.61;100745.38;4919652;29;20055;-58
2021/05/21 09:53:08;;;;;;;8.15;1.90;;;;;;;22.89;49.80;100734.31;4903283;29;20465;-59
2021/05/21 09:55:38;;;;;;;7.75;1.73;;;;;;;22.81;49.52;100721.03;4919784;29;20135;-59
2021/05/21 09:58:06;;;;;;;8.75;1.73;;;;;;;22.88;49.27;100738.34;4919567;29;20139;-60
2021/05/21 10:00:33;;;;;;;4.10;1.50;;;;;;;22.68;49.14;100734.47;4919611;29;20052;-60
2021/05/21 10:03:01;;;;;;;4.75;2.10;;;;;;;22.44;49.02;100726.78;4919435;29;20044;-59
2021/05/21 10:05:48;;;;;;;7.65;1.38;;;;;;;22.32;49.33;100749.53;4919168;29;20044;-58
2021/05/21 10:08:15;;;;;;;6.68;2.05;;;;;;;22.20;49.31;100759.75;4919294;29;20111;-59
2021/05/21 10:10:42;;;;;;;3.85;1.17;;;;;;;22.14;49.41;100757.44;4919483;29;20056;-59
2021/05/21 10:13:10;;;;;;;5.60;1.45;;;;;;;21.91;49.05;100740.00;4919170;29;20089;-59
2021/05/21 10:15:37;;;;;;;8.25;1.23;;;;;;;21.64;49.65;100761.38;4919427;29;20052;-59
2021/05/21 10:18:05;;;;;;;4.93;1.35;;;;;;;21.58;49.38;100748.59;4918975;29;20535;-58
2021/05/21 10:20:32;;;;;;;9.85;2.75;;;;;;;21.73;49.43;100756.44;4918785;29;20159;-59
2021/05/21 10:23:02;;;;;;;9.63;1.65;;;;;;;22.05;48.58;100753.88;4918914;29;20092;-59
2021/05/21 10:25:32;;;;;;;3.92;2.33;;;;;;;22.17;48.20;100748.25;4917579;29;20079;-59
2021/05/21 10:28:04;;;;;;;4.60;1.73;;;;;;;22.49;48.34;100760.69;4919024;29;20105;-59
2021/05/21 10:30:36;;;;;;;4.13;1.65;;;;;;;22.52;47.49;100742.91;4919046;29;20060;-59
2021/05/21 10:33:26;;;;;;;2.40;1.25;;;;;;;22.64;47.99;100759.97;4919051;29;20115;-59
2021/05/21 10:36:16;;;;;;;6.18;1.77;;;;;;;22.97;47.25;100758.16;4918620;29;20104;-59
2021/05/21 10:39:02;;;;;;;7.07;1.60;;;;;;;23.42;46.58;100735.09;4918466;29;20062;-59
2021/05/21 10:41:30;;;;;;;3.65;1.30;;;;;;;23.94;45.36;100748.38;4918534;29;20049;-59
2021/05/21 10:44:00;;;;;;;3.42;1.48;;;;;;;24.53;44.87;100760.91;4918449;29;20048;-58
2021/05/21 10:46:27;;;;;;;;;;;;;;;24.83;45.97;100766.94;4919076;29;20083;-59
2021/05/21 10:49:00;;;;;;;7.22;2.35;;;;;;;25.34;44.50;100763.19;4919403;29;20264;-58
2021/05/21 10:51:29;;;;;;;6.55;1.85;;;;;;;25.77;43.14;100773.44;4918872;29;20111;-59
2021/05/21 10:54:31;;;;;;;8.80;2.28;;;;;;;25.94;43.12;100772.16;4918570;29;20044;-59
2021/05/21 10:57:24;;;;;;;5.68;2.17;;;;;;;26.14;42.34;100776.63;4918431;29;20129;-59
2021/05/21 10:59:51;;;;;;;7.10;2.72;;;;;;;26.34;41.25;100768.81;4918545;29;20051;-59
2021/05/21 11:02:21;;;;;;;8.20;1.88;;;;;;;26.42;40.48;100752.56;4918471;29;20116;-59
2021/05/21 11:04:55;;;;;;;13.35;2.10;;;;;;;26.61;40.77;100763.13;4918108;29;20485;-58
2021/05/21 11:07:44;;;;;;;11.32;1.98;;;;;;;26.67;40.33;100758.75;4918322;29;20044;-59
2021/05/21 11:10:34;;;;;;;8.10;1.83;;;;;;;26.28;40.82;100755.19;4918138;29;20083;-59
2021/05/21 11:13:04;;;;;;;10.88;2.00;;;;;;;26.18;40.65;100768.94;4915336;29;20185;-59
2021/05/21 11:15:37;;;;;;;4.97;1.42;;;;;;;26.04;40.89;100760.09;4917907;29;20055;-59
2021/05/21 11:18:16;;;;;;;5.65;1.80;;;;;;;26.02;40.84;100748.22;4917632;29;20087;-58
2021/05/21 11:21:02;;;;;;;8.38;2.38;;;;;;;26.24;41.09;100752.28;4917756;29;20052;-58
2021/05/21 11:23:41;;;;;;;3.55;1.40;;;;;;;26.33;40.21;100749.97;4918183;29;20052;-58
2021/05/21 11:26:14;;;;;;;9.82;2.42;;;;;;;26.21;40.30;100764.47;4917742;29;20076;-58
2021/05/21 11:28:53;;;;;;;7.25;1.50;;;;;;;26.65;39.85;100756.25;4917721;29;20052;-58
2021/05/21 11:31:25;;;;;;;7.45;1.77;;;;;;;26.90;39.11;100747.19;4917722;29;20485;-58
2021/05/21 11:33:54;;;;;;;8.80;2.42;;;;;;;26.92;40.38;100750.50;4918035;29;20115;-59